createdAt,value
2023-04-10T00:00:18.854Z,43.10
2023-04-10T00:01:17.898Z,44.20
2023-04-10T00:02:18.031Z,43.70
2023-04-10T00:03:18.262Z,44.10
2023-04-10T00:04:18.870Z,45.20
2023-04-10T00:05:17.888Z,44.80
2023-04-10T00:06:18.780Z,40.60
2023-04-10T00:07:18.372Z,44.90
2023-04-10T00:08:18.852Z,41.10
2023-04-10T00:09:18.751Z,42.60
2023-04-10T00:10:17.718Z,40.90
2023-04-10T00:11:18.582Z,40.10
2023-04-10T00:12:18.774Z,42.50
2023-04-10T00:13:18.630Z,41.30
2023-04-10T00:14:18.540Z,44.50
2023-04-10T00:15:17.724Z,39.30
2023-04-10T00:16:18.614Z,46.20
2023-04-10T00:17:17.639Z,45.90
2023-04-10T00:18:18.395Z,43.40
2023-04-10T00:19:17.615Z,42.90
2023-04-10T00:20:18.452Z,48.20
2023-04-10T00:21:17.586Z,46.70
2023-04-10T00:22:18.519Z,47.00
2023-04-10T00:23:18.436Z,45.20
2023-04-10T00:24:18.332Z,43.00
2023-04-10T00:25:18.495Z,44.10
2023-04-10T00:26:18.401Z,45.70
2023-04-10T00:27:17.484Z,45.60
2023-04-10T00:28:17.531Z,42.90
2023-04-10T00:29:17.468Z,43.90
2023-04-10T00:30:18.261Z,42.80
2023-04-10T00:31:17.550Z,45.30
2023-04-10T00:32:17.558Z,42.60
2023-04-10T00:33:18.323Z,44.80
2023-04-10T00:34:18.425Z,44.30
2023-04-10T00:35:17.618Z,43.60
2023-04-10T00:36:18.315Z,43.10
2023-04-10T00:37:17.397Z,44.90
2023-04-10T00:38:17.686Z,41.80
2023-04-10T00:39:18.181Z,44.00
2023-04-10T00:40:17.354Z,45.10
2023-04-10T00:41:17.313Z,46.20
2023-04-10T00:42:17.288Z,46.40
2023-04-10T00:43:17.310Z,46.10
2023-04-10T00:44:17.320Z,47.60
2023-04-10T00:45:17.308Z,44.60
2023-04-10T00:46:17.308Z,47.50
2023-04-10T00:47:17.360Z,47.00
2023-04-10T00:48:17.286Z,50.60
2023-04-10T00:49:17.263Z,50.30
2023-04-10T00:50:17.341Z,49.50
2023-04-10T00:51:17.281Z,50.10
2023-04-10T00:52:17.255Z,48.80
2023-04-10T00:53:17.247Z,52.10
2023-04-10T00:54:17.314Z,52.10
2023-04-10T00:55:17.253Z,52.20
2023-04-10T00:56:17.223Z,53.20
2023-04-10T00:57:17.084Z,53.20
2023-04-10T00:58:17.054Z,54.20
2023-04-10T00:59:17.081Z,53.20
2023-04-10T01:00:17.020Z,51.80
2023-04-10T01:01:17.317Z,58.30
2023-04-10T01:02:17.331Z,54.20
2023-04-10T01:03:17.133Z,52.40
2023-04-10T01:04:17.153Z,52.60
2023-04-10T01:05:17.235Z,52.80
2023-04-10T01:06:16.922Z,55.70
2023-04-10T01:07:16.970Z,53.60
2023-04-10T01:08:16.928Z,52.00
2023-04-10T01:09:16.904Z,54.80
2023-04-10T01:10:16.867Z,54.80
2023-04-10T01:11:16.886Z,56.50
2023-04-10T01:12:16.916Z,55.80
2023-04-10T01:13:16.960Z,54.20
2023-04-10T01:14:16.878Z,53.80
2023-04-10T01:15:16.825Z,51.00
2023-04-10T01:16:16.809Z,50.90
2023-04-10T01:17:16.842Z,59.20
2023-04-10T01:18:16.758Z,51.90
2023-04-10T01:19:16.753Z,55.30
2023-04-10T01:20:16.745Z,49.70
2023-04-10T01:21:16.724Z,55.00
2023-04-10T01:22:16.713Z,61.60
2023-04-10T01:23:16.707Z,60.30
2023-04-10T01:24:16.687Z,55.10
2023-04-10T01:25:16.657Z,51.90
2023-04-10T01:26:16.662Z,52.70
2023-04-10T01:27:16.632Z,54.30
2023-04-10T01:28:16.654Z,55.80
2023-04-10T01:29:16.592Z,50.40
2023-04-10T01:30:16.638Z,55.40
2023-04-10T01:31:16.624Z,52.30
2023-04-10T01:32:17.425Z,52.40
2023-04-10T01:33:16.546Z,53.70
2023-04-10T01:34:16.634Z,48.90
2023-04-10T01:35:16.573Z,50.90
2023-04-10T01:36:17.295Z,52.40
2023-04-10T01:37:17.488Z,49.90
2023-04-10T01:38:16.475Z,53.60
2023-04-10T01:39:16.499Z,50.50
2023-04-10T01:40:16.839Z,48.40
2023-04-10T01:41:16.529Z,50.30
2023-04-10T01:42:16.481Z,53.20
2023-04-10T01:43:16.407Z,54.40
2023-04-10T01:44:16.412Z,54.10
2023-04-10T01:45:16.379Z,50.60
2023-04-10T01:46:16.385Z,48.40
2023-04-10T01:47:16.349Z,50.80
2023-04-10T01:48:16.330Z,50.50
2023-04-10T01:49:16.328Z,51.90
2023-04-10T01:50:16.328Z,51.30
2023-04-10T01:51:16.337Z,53.40
2023-04-10T01:52:16.272Z,53.10
2023-04-10T01:53:17.230Z,52.80
2023-04-10T01:54:16.271Z,49.70
2023-04-10T01:55:16.284Z,51.60
2023-04-10T01:56:16.256Z,55.80
2023-04-10T01:57:16.202Z,50.20
2023-04-10T01:58:16.204Z,46.70
2023-04-10T01:59:16.195Z,54.00
2023-04-10T02:00:16.234Z,48.90
2023-04-10T02:01:26.314Z,47.30
2023-04-10T02:02:17.368Z,52.00
2023-04-10T02:03:16.410Z,48.10
2023-04-10T02:04:16.175Z,46.00
2023-04-10T02:05:16.092Z,48.20
2023-04-10T02:06:16.108Z,48.80
2023-04-10T02:07:16.886Z,49.10
2023-04-10T02:08:16.087Z,45.50
2023-04-10T02:09:16.796Z,49.70
2023-04-10T02:10:16.036Z,46.00
2023-04-10T02:11:16.056Z,46.00
2023-04-10T02:12:16.006Z,45.10
2023-04-10T02:13:16.042Z,46.10
2023-04-10T02:14:16.030Z,45.80
2023-04-10T02:15:15.956Z,46.20
2023-04-10T02:16:15.962Z,45.50
2023-04-10T02:17:15.968Z,47.10
2023-04-10T02:18:15.911Z,45.50
2023-04-10T02:19:15.921Z,46.30
2023-04-10T02:20:15.990Z,46.30
2023-04-10T02:21:15.907Z,44.80
2023-04-10T02:22:15.865Z,46.40
2023-04-10T02:23:16.653Z,46.40
2023-04-10T02:24:15.873Z,43.40
2023-04-10T02:25:15.829Z,45.10
2023-04-10T02:26:15.818Z,43.90
2023-04-10T02:27:16.800Z,43.20
2023-04-10T02:28:15.783Z,46.40
2023-04-10T02:29:16.569Z,45.00
2023-04-10T02:30:16.757Z,43.50
2023-04-10T02:31:15.770Z,45.30
2023-04-10T02:32:16.540Z,44.20
2023-04-10T02:33:16.703Z,45.60
2023-04-10T02:34:16.651Z,43.10
2023-04-10T02:35:16.537Z,43.50
2023-04-10T02:36:16.742Z,44.50
2023-04-10T02:37:16.604Z,45.00
2023-04-10T02:38:17.462Z,48.30
2023-04-10T02:39:16.665Z,45.30
2023-04-10T02:40:16.538Z,45.00
2023-04-10T02:41:15.608Z,48.50
2023-04-10T02:42:15.620Z,47.20
2023-04-10T02:43:16.502Z,47.40
2023-04-10T02:44:15.577Z,48.10
2023-04-10T02:45:16.587Z,46.00
2023-04-10T02:46:16.516Z,47.30
2023-04-10T02:47:16.390Z,50.40
2023-04-10T02:48:15.551Z,46.30
2023-04-10T02:49:15.570Z,49.70
2023-04-10T02:50:16.345Z,46.70
2023-04-10T02:51:16.244Z,48.40
2023-04-10T02:52:16.421Z,45.90
2023-04-10T02:53:16.324Z,48.50
2023-04-10T02:54:15.450Z,45.70
2023-04-10T02:55:15.440Z,49.70
2023-04-10T02:56:16.279Z,46.10
2023-04-10T02:57:16.181Z,51.00
2023-04-10T02:58:15.433Z,49.50
2023-04-10T02:59:16.251Z,50.50
2023-04-10T03:00:16.147Z,47.10
2023-04-10T03:01:15.411Z,52.80
2023-04-10T03:02:16.336Z,61.30
2023-04-10T03:03:16.262Z,59.10
2023-04-10T03:04:16.364Z,62.10
2023-04-10T03:05:16.211Z,58.70
2023-04-10T03:06:16.119Z,56.50
2023-04-10T03:07:16.291Z,59.10
2023-04-10T03:08:15.300Z,60.60
2023-04-10T03:09:16.096Z,62.40
2023-04-10T03:10:15.234Z,65.70
2023-04-10T03:11:15.212Z,70.70
2023-04-10T03:12:16.054Z,62.60
2023-04-10T03:13:15.927Z,67.70
2023-04-10T03:14:16.085Z,66.70
2023-04-10T03:15:16.050Z,64.50
2023-04-10T03:16:15.905Z,62.90
2023-04-10T03:17:16.062Z,67.90
2023-04-10T03:18:16.043Z,68.10
2023-04-10T03:19:15.861Z,71.10
2023-04-10T03:20:15.120Z,69.00
2023-04-10T03:21:15.981Z,62.30
2023-04-10T03:22:15.831Z,58.40
2023-04-10T03:23:15.993Z,59.90
2023-04-10T03:24:15.030Z,64.90
2023-04-10T03:25:15.799Z,67.40
2023-04-10T03:26:14.997Z,74.20
2023-04-10T03:27:15.867Z,73.10
2023-04-10T03:28:15.765Z,68.20
2023-04-10T03:29:14.955Z,67.60
2023-04-10T03:30:15.836Z,67.00
2023-04-10T03:31:15.803Z,72.30
2023-04-10T03:32:14.911Z,69.20
2023-04-10T03:33:15.835Z,66.70
2023-04-10T03:34:15.716Z,71.70
2023-04-10T03:35:15.234Z,73.30
2023-04-10T03:36:14.903Z,71.10
2023-04-10T03:37:15.674Z,69.00
2023-04-10T03:38:14.841Z,79.40
2023-04-10T03:39:14.886Z,75.40
2023-04-10T03:40:15.635Z,65.00
2023-04-10T03:41:14.792Z,63.20
2023-04-10T03:42:14.787Z,60.70
2023-04-10T03:43:14.776Z,60.70
2023-04-10T03:44:14.765Z,62.60
2023-04-10T03:45:15.688Z,58.70
2023-04-10T03:46:15.605Z,51.80
2023-04-10T03:47:15.543Z,52.70
2023-04-10T03:48:14.693Z,53.10
2023-04-10T03:49:14.714Z,52.20
2023-04-10T03:50:15.521Z,49.60
2023-04-10T03:51:15.615Z,47.70
2023-04-10T03:52:15.525Z,49.60
2023-04-10T03:53:15.416Z,48.30
2023-04-10T03:54:15.698Z,47.00
2023-04-10T03:55:15.528Z,48.40
2023-04-10T03:56:15.397Z,49.50
2023-04-10T03:57:15.557Z,50.30
2023-04-10T03:58:15.467Z,55.10
2023-04-10T03:59:15.345Z,57.40
2023-04-10T04:00:15.527Z,61.70
2023-04-10T04:01:14.513Z,62.10
2023-04-10T04:02:15.397Z,59.80
2023-04-10T04:03:15.865Z,69.50
2023-04-10T04:04:14.658Z,75.00
2023-04-10T04:05:14.810Z,75.10
2023-04-10T04:06:14.448Z,80.10
2023-04-10T04:07:14.783Z,79.50
2023-04-10T04:08:14.474Z,78.20
2023-04-10T04:09:15.417Z,64.30
2023-04-10T04:10:14.400Z,71.10
2023-04-10T04:11:14.403Z,70.90
2023-04-10T04:12:15.134Z,70.80
2023-04-10T04:13:15.305Z,67.40
2023-04-10T04:14:14.369Z,67.20
2023-04-10T04:15:14.310Z,61.00
2023-04-10T04:16:14.662Z,69.10
2023-04-10T04:17:14.821Z,68.90
2023-04-10T04:18:14.925Z,72.00
2023-04-10T04:19:14.907Z,68.20
2023-04-10T04:20:14.299Z,72.60
2023-04-10T04:21:14.244Z,75.00
2023-04-10T04:22:14.304Z,76.10
2023-04-10T04:23:14.272Z,77.20
2023-04-10T04:24:14.421Z,81.80
2023-04-10T04:25:14.207Z,83.00
2023-04-10T04:26:15.171Z,82.00
2023-04-10T04:27:14.161Z,78.40
2023-04-10T04:28:14.207Z,81.10
2023-04-10T04:29:15.031Z,77.20
2023-04-10T04:30:14.286Z,75.10
2023-04-10T04:31:14.207Z,72.20
2023-04-10T04:32:14.289Z,75.50
2023-04-10T04:33:14.260Z,75.00
2023-04-10T04:34:15.077Z,68.30
2023-04-10T04:35:14.176Z,73.60
2023-04-10T04:36:14.419Z,71.90
2023-04-10T04:37:14.215Z,58.60
2023-04-10T04:38:14.148Z,57.20
2023-04-10T04:39:14.287Z,56.30
2023-04-10T04:40:14.338Z,55.70
2023-04-10T04:41:14.021Z,59.00
2023-04-10T04:42:13.972Z,57.10
2023-04-10T04:43:14.712Z,57.90
2023-04-10T04:44:14.163Z,58.10
2023-04-10T04:45:14.093Z,59.40
2023-04-10T04:46:13.929Z,64.20
2023-04-10T04:47:13.901Z,65.50
2023-04-10T04:48:14.045Z,63.40
2023-04-10T04:49:13.892Z,64.50
2023-04-10T04:50:13.857Z,64.90
2023-04-10T04:51:13.902Z,72.70
2023-04-10T04:52:13.793Z,67.40
2023-04-10T04:53:13.814Z,68.30
2023-04-10T04:54:13.782Z,70.00
2023-04-10T04:55:13.871Z,68.30
2023-04-10T04:56:13.834Z,73.20
2023-04-10T04:57:13.744Z,69.90
2023-04-10T04:58:13.729Z,72.40
2023-04-10T04:59:13.684Z,67.10
2023-04-10T05:00:13.843Z,69.40
2023-04-10T05:01:14.546Z,64.20
2023-04-10T05:02:14.863Z,68.00
2023-04-10T05:03:13.786Z,63.40
2023-04-10T05:04:13.832Z,63.90
2023-04-10T05:05:13.838Z,64.30
2023-04-10T05:06:13.644Z,66.80
2023-04-10T05:07:13.593Z,65.70
2023-04-10T05:08:13.597Z,60.80
2023-04-10T05:09:13.662Z,61.80
2023-04-10T05:10:13.864Z,63.00
2023-04-10T05:11:13.958Z,63.70
2023-04-10T05:12:13.494Z,65.30
2023-04-10T05:13:13.498Z,63.20
2023-04-10T05:14:13.490Z,63.80
2023-04-10T05:15:13.869Z,55.50
2023-04-10T05:16:13.519Z,60.20
2023-04-10T05:17:13.559Z,56.30
2023-04-10T05:18:13.446Z,60.40
2023-04-10T05:19:13.450Z,63.20
2023-04-10T05:20:13.442Z,63.00
2023-04-10T05:21:13.426Z,60.80
2023-04-10T05:22:13.361Z,60.50
2023-04-10T05:23:13.456Z,57.30
2023-04-10T05:24:13.338Z,58.90
2023-04-10T05:25:13.425Z,62.20
2023-04-10T05:26:13.322Z,56.00
2023-04-10T05:27:13.417Z,59.00
2023-04-10T05:28:13.327Z,56.40
2023-04-10T05:29:13.289Z,56.10
2023-04-10T05:30:13.297Z,59.90
2023-04-10T05:31:13.297Z,59.00
2023-04-10T05:32:13.247Z,52.80
2023-04-10T05:33:13.234Z,55.50
2023-04-10T05:34:13.244Z,51.60
2023-04-10T05:35:13.181Z,50.50
2023-04-10T05:36:13.326Z,45.60
2023-04-10T05:37:14.099Z,47.80
2023-04-10T05:38:13.182Z,45.70
2023-04-10T05:39:13.121Z,44.00
2023-04-10T05:40:13.436Z,40.50
2023-04-10T05:41:13.129Z,40.10
2023-04-10T05:42:13.248Z,39.10
2023-04-10T05:43:13.070Z,40.30
2023-04-10T05:44:13.044Z,42.00
2023-04-10T05:45:13.133Z,39.30
2023-04-10T05:46:13.134Z,39.10
2023-04-10T05:47:13.040Z,40.20
2023-04-10T05:48:13.169Z,39.80
2023-04-10T05:49:12.993Z,36.40
2023-04-10T05:50:12.990Z,37.20
2023-04-10T05:51:12.991Z,38.40
2023-04-10T05:52:13.078Z,33.40
2023-04-10T05:53:12.993Z,34.60
2023-04-10T05:54:12.950Z,33.30
2023-04-10T05:55:14.052Z,32.80
2023-04-10T05:56:13.856Z,32.90
2023-04-10T05:57:12.931Z,29.70
2023-04-10T05:58:12.916Z,29.10
2023-04-10T05:59:12.874Z,27.60
2023-04-10T06:00:13.717Z,25.60
2023-04-10T06:01:12.855Z,26.60
2023-04-10T06:02:12.917Z,25.30
2023-04-10T06:03:13.580Z,24.70
2023-04-10T06:04:12.879Z,23.20
2023-04-10T06:05:13.014Z,23.20
2023-04-10T06:06:13.095Z,23.50
2023-04-10T06:07:13.234Z,22.30
2023-04-10T06:08:12.786Z,22.80
2023-04-10T06:09:12.962Z,21.40
2023-04-10T06:10:12.824Z,19.60
2023-04-10T06:11:12.762Z,18.10
2023-04-10T06:12:12.810Z,19.50
2023-04-10T06:13:12.920Z,18.80
2023-04-10T06:14:12.686Z,22.50
2023-04-10T06:15:12.690Z,22.00
2023-04-10T06:16:12.690Z,22.50
2023-04-10T06:17:12.647Z,22.70
2023-04-10T06:18:12.952Z,22.10
2023-04-10T06:19:12.700Z,19.50
2023-04-10T06:20:12.883Z,21.60
2023-04-10T06:21:12.859Z,21.40
2023-04-10T06:22:12.576Z,20.20
2023-04-10T06:23:12.679Z,19.10
2023-04-10T06:24:12.978Z,20.40
2023-04-10T06:25:12.504Z,20.50
2023-04-10T06:26:12.512Z,20.00
2023-04-10T06:27:12.478Z,20.40
2023-04-10T06:28:12.466Z,21.50
2023-04-10T06:29:13.245Z,21.20
2023-04-10T06:30:12.485Z,20.50
2023-04-10T06:31:12.529Z,20.50
2023-04-10T06:32:12.438Z,21.00
2023-04-10T06:33:12.419Z,20.50
2023-04-10T06:34:12.367Z,20.30
2023-04-10T06:35:12.551Z,21.30
2023-04-10T06:36:12.444Z,19.90
2023-04-10T06:37:12.633Z,20.20
2023-04-10T06:38:12.385Z,22.10
2023-04-10T06:39:13.299Z,22.70
2023-04-10T06:40:13.249Z,21.90
2023-04-10T06:41:12.400Z,21.60
2023-04-10T06:42:13.015Z,19.70
2023-04-10T06:43:13.175Z,22.30
2023-04-10T06:44:12.300Z,22.40
2023-04-10T06:45:13.242Z,21.60
2023-04-10T06:46:13.164Z,21.70
2023-04-10T06:47:12.412Z,21.30
2023-04-10T06:48:12.164Z,21.90
2023-04-10T06:49:13.112Z,20.80
2023-04-10T06:50:12.216Z,20.00
2023-04-10T06:51:12.811Z,21.40
2023-04-10T06:52:12.885Z,22.40
2023-04-10T06:53:12.273Z,23.20
2023-04-10T06:54:12.983Z,21.30
2023-04-10T06:55:13.076Z,21.00
2023-04-10T06:56:12.954Z,22.00
2023-04-10T06:57:12.165Z,21.60
2023-04-10T06:58:13.017Z,21.70
2023-04-10T06:59:12.036Z,20.60
2023-04-10T07:00:12.821Z,21.80
2023-04-10T07:01:12.063Z,22.40
2023-04-10T07:02:12.093Z,20.30
2023-04-10T07:03:12.010Z,20.70
2023-04-10T07:04:12.997Z,20.10
2023-04-10T07:05:12.871Z,20.40
2023-04-10T07:06:12.009Z,20.80
2023-04-10T07:07:12.928Z,20.80
2023-04-10T07:08:11.978Z,22.10
2023-04-10T07:09:11.931Z,23.30
2023-04-10T07:10:11.936Z,25.20
2023-04-10T07:11:12.797Z,24.90
2023-04-10T07:12:12.713Z,22.90
2023-04-10T07:13:11.881Z,21.20
2023-04-10T07:14:12.791Z,23.60
2023-04-10T07:15:11.876Z,20.80
2023-04-10T07:16:12.640Z,20.30
2023-04-10T07:17:11.834Z,20.50
2023-04-10T07:18:11.808Z,19.60
2023-04-10T07:19:11.741Z,21.60
2023-04-10T07:20:11.857Z,20.20
2023-04-10T07:21:11.843Z,20.40
2023-04-10T07:22:11.724Z,20.80
2023-04-10T07:23:11.747Z,19.50
2023-04-10T07:24:11.766Z,19.50
2023-04-10T07:25:11.750Z,19.90
2023-04-10T07:26:11.688Z,20.60
2023-04-10T07:27:11.794Z,19.20
2023-04-10T07:28:12.049Z,19.10
2023-04-10T07:29:11.670Z,20.30
2023-04-10T07:30:13.511Z,19.60
2023-04-10T07:31:12.033Z,20.20
2023-04-10T07:32:11.882Z,20.20
2023-04-10T07:33:11.843Z,21.10
2023-04-10T07:34:12.073Z,19.30
2023-04-10T07:35:11.543Z,19.30
2023-04-10T07:36:11.828Z,19.50
2023-04-10T07:37:11.832Z,19.80
2023-04-10T07:38:12.271Z,19.80
2023-04-10T07:39:11.568Z,19.10
2023-04-10T07:40:11.841Z,19.70
2023-04-10T07:41:11.490Z,19.50
2023-04-10T07:42:11.518Z,21.30
2023-04-10T07:43:11.445Z,21.00
2023-04-10T07:44:11.554Z,19.90
2023-04-10T07:45:11.562Z,18.80
2023-04-10T07:46:11.423Z,19.50
2023-04-10T07:47:11.447Z,20.00
2023-04-10T07:48:11.689Z,19.40
2023-04-10T07:49:11.548Z,19.40
2023-04-10T07:50:11.376Z,20.20
2023-04-10T07:51:11.545Z,19.50
2023-04-10T07:52:11.846Z,19.80
2023-04-10T07:53:11.473Z,23.00
2023-04-10T07:54:11.397Z,22.10
2023-04-10T07:55:11.663Z,23.60
2023-04-10T07:56:11.340Z,26.40
2023-04-10T07:57:11.583Z,22.20
2023-04-10T07:58:11.214Z,21.00
2023-04-10T07:59:11.245Z,19.50
2023-04-10T08:00:11.244Z,19.90
2023-04-10T08:01:11.500Z,20.60
2023-04-10T08:02:11.554Z,20.00
2023-04-10T08:03:11.363Z,19.60
2023-04-10T08:04:11.326Z,21.00
2023-04-10T08:05:11.274Z,18.90
2023-04-10T08:06:11.200Z,18.40
2023-04-10T08:07:11.084Z,19.60
2023-04-10T08:08:11.180Z,19.80
2023-04-10T08:09:11.098Z,19.70
2023-04-10T08:10:11.168Z,18.50
2023-04-10T08:11:11.163Z,18.30
2023-04-10T08:12:11.820Z,19.40
2023-04-10T08:13:11.027Z,18.30
2023-04-10T08:14:10.993Z,19.00
2023-04-10T08:15:10.986Z,19.20
2023-04-10T08:16:11.056Z,18.90
2023-04-10T08:17:11.213Z,19.20
2023-04-10T08:18:10.925Z,20.50
2023-04-10T08:19:10.934Z,20.80
2023-04-10T08:20:10.952Z,20.80
2023-04-10T08:21:11.701Z,19.20
2023-04-10T08:22:10.894Z,19.10
2023-04-10T08:23:19.662Z,18.80
2023-04-10T08:24:11.923Z,18.00
2023-04-10T08:25:10.957Z,18.10
2023-04-10T08:26:10.840Z,17.50
2023-04-10T08:27:10.787Z,17.70
2023-04-10T08:28:10.782Z,17.70
2023-04-10T08:29:10.872Z,18.20
2023-04-10T08:30:10.954Z,17.70
2023-04-10T08:31:10.764Z,18.60
2023-04-10T08:32:10.802Z,17.70
2023-04-10T08:33:10.799Z,19.20
2023-04-10T08:34:10.836Z,18.30
2023-04-10T08:35:10.793Z,17.60
2023-04-10T08:36:10.685Z,17.80
2023-04-10T08:37:11.923Z,17.10
2023-04-10T08:38:14.156Z,17.70
2023-04-10T08:39:10.923Z,16.60
2023-04-10T08:40:10.698Z,17.40
2023-04-10T08:41:10.625Z,18.10
2023-04-10T08:42:10.581Z,17.80
2023-04-10T08:43:10.646Z,17.80
2023-04-10T08:44:10.595Z,17.50
2023-04-10T08:45:10.674Z,17.20
2023-04-10T08:46:10.723Z,18.10
2023-04-10T08:47:10.614Z,16.70
2023-04-10T08:48:10.544Z,16.20
2023-04-10T08:49:10.553Z,16.20
2023-04-10T08:50:10.507Z,15.40
2023-04-10T08:51:15.541Z,16.60
2023-04-10T08:52:11.433Z,16.40
2023-04-10T08:53:10.470Z,16.30
2023-04-10T08:54:10.454Z,16.30
2023-04-10T08:55:10.512Z,15.40
2023-04-10T08:56:10.410Z,16.00
2023-04-10T08:57:11.331Z,16.80
2023-04-10T08:58:10.378Z,15.70
2023-04-10T08:59:10.414Z,15.90
2023-04-10T09:01:11.343Z,15.20
2023-04-10T09:02:10.476Z,16.60
2023-04-10T09:03:10.847Z,15.00
2023-04-10T09:04:10.476Z,17.00
2023-04-10T09:05:10.365Z,15.60
2023-04-10T09:06:10.331Z,15.20
2023-04-10T09:07:10.342Z,14.60
2023-04-10T09:08:10.273Z,16.00
2023-04-10T09:09:10.238Z,15.20
2023-04-10T09:10:10.959Z,14.90
2023-04-10T09:11:10.426Z,15.60
2023-04-10T09:12:10.304Z,15.70
2023-04-10T09:13:10.229Z,15.50
2023-04-10T09:14:10.125Z,15.20
2023-04-10T09:15:10.144Z,15.10
2023-04-10T09:16:10.189Z,14.90
2023-04-10T09:17:10.196Z,15.20
2023-04-10T09:18:11.124Z,15.50
2023-04-10T09:19:10.076Z,15.60
2023-04-10T09:20:10.074Z,14.40
2023-04-10T09:21:10.066Z,15.30
2023-04-10T09:22:11.153Z,14.90
2023-04-10T09:23:10.880Z,15.00
2023-04-10T09:24:10.044Z,13.80
2023-04-10T09:25:10.089Z,14.40
2023-04-10T09:26:09.960Z,13.90
2023-04-10T09:27:10.049Z,14.20
2023-04-10T09:28:10.900Z,14.30
2023-04-10T09:29:09.941Z,13.90
2023-04-10T09:30:09.977Z,15.10
2023-04-10T09:31:09.918Z,15.40
2023-04-10T09:32:09.896Z,14.00
2023-04-10T09:33:09.939Z,13.50
2023-04-10T09:34:09.982Z,12.80
2023-04-10T09:35:09.916Z,14.20
2023-04-10T09:36:09.888Z,14.10
2023-04-10T09:37:09.835Z,13.20
2023-04-10T09:38:10.748Z,13.80
2023-04-10T09:39:10.701Z,14.20
2023-04-10T09:40:09.822Z,13.60
2023-04-10T09:41:09.836Z,13.10
2023-04-10T09:42:09.761Z,13.10
2023-04-10T09:43:09.785Z,13.40
2023-04-10T09:44:09.780Z,13.50
2023-04-10T09:45:09.830Z,13.00
2023-04-10T09:46:10.720Z,12.70
2023-04-10T09:47:09.718Z,12.30
2023-04-10T09:48:09.699Z,12.10
2023-04-10T09:49:10.673Z,12.10
2023-04-10T09:50:09.737Z,12.30
2023-04-10T09:51:09.657Z,12.30
2023-04-10T09:52:10.383Z,12.20
2023-04-10T09:53:09.654Z,12.30
2023-04-10T09:54:09.676Z,13.20
2023-04-10T09:55:09.665Z,11.90
2023-04-10T09:56:09.550Z,12.90
2023-04-10T09:57:09.630Z,12.60
2023-04-10T09:58:09.678Z,12.70
2023-04-10T09:59:09.584Z,12.20
2023-04-10T10:00:09.562Z,12.70
2023-04-10T10:01:09.661Z,13.00
2023-04-10T10:02:09.746Z,11.80
2023-04-10T10:03:09.591Z,11.40
2023-04-10T10:04:09.640Z,12.10
2023-04-10T10:05:09.596Z,11.60
2023-04-10T10:06:09.526Z,11.70
2023-04-10T10:07:10.324Z,12.50
2023-04-10T10:08:09.442Z,11.90
2023-04-10T10:09:09.402Z,14.10
2023-04-10T10:10:09.475Z,11.20
2023-04-10T10:11:09.357Z,11.30
2023-04-10T10:12:09.504Z,10.20
2023-04-10T10:13:09.324Z,10.30
2023-04-10T10:14:09.385Z,10.60
2023-04-10T10:15:09.535Z,9.90
2023-04-10T10:16:09.568Z,10.30
2023-04-10T10:17:09.467Z,9.90
2023-04-10T10:18:09.391Z,9.60
2023-04-10T10:19:09.255Z,10.00
2023-04-10T10:20:09.558Z,9.50
2023-04-10T10:21:10.313Z,9.00
2023-04-10T10:22:09.330Z,8.80
2023-04-10T10:23:09.200Z,10.00
2023-04-10T10:24:09.274Z,10.40
2023-04-10T10:25:09.292Z,9.80
2023-04-10T10:26:09.185Z,9.50
2023-04-10T10:27:09.211Z,8.70
2023-04-10T10:28:09.269Z,8.70
2023-04-10T10:29:09.150Z,8.50
2023-04-10T10:30:25.444Z,9.40
2023-04-10T10:31:10.121Z,9.30
2023-04-10T10:32:09.402Z,9.30
2023-04-10T10:33:09.582Z,8.40
2023-04-10T10:34:10.002Z,8.50
2023-04-10T10:35:09.133Z,8.00
2023-04-10T10:36:09.145Z,8.50
2023-04-10T10:37:09.029Z,8.30
2023-04-10T10:38:08.989Z,8.10
2023-04-10T10:39:09.044Z,8.70
2023-04-10T10:40:08.989Z,9.40
2023-04-10T10:41:09.780Z,9.50
2023-04-10T10:42:08.937Z,8.90
2023-04-10T10:43:09.258Z,8.80
2023-04-10T10:44:08.973Z,9.10
2023-04-10T10:45:08.948Z,9.50
2023-04-10T10:46:08.950Z,8.60
2023-04-10T10:47:09.004Z,8.30
2023-04-10T10:48:09.014Z,8.90
2023-04-10T10:49:08.857Z,8.10
2023-04-10T10:50:09.684Z,8.60
2023-04-10T10:51:09.640Z,8.50
2023-04-10T10:52:08.916Z,8.60
2023-04-10T10:53:09.667Z,8.50
2023-04-10T10:54:08.802Z,8.00
2023-04-10T10:55:08.884Z,8.50
2023-04-10T10:56:08.750Z,9.10
2023-04-10T10:57:09.547Z,8.50
2023-04-10T10:58:09.691Z,8.00
2023-04-10T10:59:09.600Z,8.10
2023-04-10T11:00:08.759Z,8.90
2023-04-10T11:01:10.484Z,8.60
2023-04-10T11:02:08.730Z,7.60
2023-04-10T11:03:09.633Z,8.00
2023-04-10T11:04:08.758Z,8.00
2023-04-10T11:05:08.744Z,8.00
2023-04-10T11:06:09.474Z,7.50
2023-04-10T11:07:08.969Z,7.40
2023-04-10T11:08:08.665Z,8.40
2023-04-10T11:09:08.580Z,8.20
2023-04-10T11:10:08.631Z,8.40
2023-04-10T11:11:08.584Z,8.40
2023-04-10T11:12:08.716Z,7.80
2023-04-10T11:13:08.607Z,7.80
2023-04-10T11:14:08.875Z,7.70
2023-04-10T11:15:08.602Z,7.90
2023-04-10T11:16:08.503Z,8.30
2023-04-10T11:17:09.399Z,7.80
2023-04-10T11:18:09.053Z,7.80
2023-04-10T11:19:14.272Z,7.70
2023-04-10T11:20:09.466Z,7.70
2023-04-10T11:21:08.424Z,7.80
2023-04-10T11:22:09.152Z,7.30
2023-04-10T11:23:08.506Z,7.90
2023-04-10T11:24:09.125Z,7.50
2023-04-10T11:25:08.493Z,7.90
2023-04-10T11:26:08.390Z,7.00
2023-04-10T11:27:08.406Z,7.10
2023-04-10T11:28:08.342Z,7.50
2023-04-10T11:29:08.344Z,6.90
2023-04-10T11:30:08.391Z,7.10
2023-04-10T11:31:09.002Z,7.10
2023-04-10T11:32:08.416Z,6.80
2023-04-10T11:33:08.355Z,7.00
2023-04-10T11:34:08.928Z,6.90
2023-04-10T11:35:08.974Z,7.00
2023-04-10T11:36:08.199Z,6.70
2023-04-10T11:37:08.194Z,6.80
2023-04-10T11:38:08.275Z,6.20
2023-04-10T11:39:08.167Z,6.40
2023-04-10T11:40:08.201Z,6.40
2023-04-10T11:41:08.226Z,6.00
2023-04-10T11:42:08.142Z,7.00
2023-04-10T11:43:08.150Z,6.40
2023-04-10T11:44:08.122Z,6.00
2023-04-10T11:45:08.058Z,5.70
2023-04-10T11:46:08.234Z,5.90
2023-04-10T11:47:08.156Z,6.00
2023-04-10T11:48:08.195Z,5.80
2023-04-10T11:49:08.105Z,6.20
2023-04-10T11:50:07.980Z,5.80
2023-04-10T11:51:09.002Z,6.60
2023-04-10T11:52:07.997Z,6.10
2023-04-10T11:53:07.946Z,6.50
2023-04-10T11:54:08.967Z,5.90
2023-04-10T11:55:08.005Z,5.70
2023-04-10T11:56:07.922Z,5.60
2023-04-10T11:57:07.880Z,5.30
2023-04-10T11:58:07.941Z,5.50
2023-04-10T11:59:08.725Z,5.80
2023-04-10T12:00:07.906Z,5.50
2023-04-10T12:01:07.882Z,5.70
2023-04-10T12:02:08.035Z,5.30
2023-04-10T12:03:08.945Z,5.90
2023-04-10T12:04:08.027Z,5.50
2023-04-10T12:05:07.902Z,5.70
2023-04-10T12:06:07.797Z,5.80
2023-04-10T12:07:07.831Z,5.60
2023-04-10T12:08:07.768Z,5.30
2023-04-10T12:09:07.759Z,5.80
2023-04-10T12:10:07.891Z,5.80
2023-04-10T12:11:07.754Z,6.10
2023-04-10T12:12:07.836Z,5.30
2023-04-10T12:13:07.771Z,5.90
2023-04-10T12:14:08.559Z,5.10
2023-04-10T12:15:07.678Z,5.10
2023-04-10T12:16:07.771Z,5.20
2023-04-10T12:17:07.645Z,5.80
2023-04-10T12:18:08.400Z,5.50
2023-04-10T12:19:08.583Z,5.30
2023-04-10T12:20:07.710Z,4.70
2023-04-10T12:21:08.922Z,4.90
2023-04-10T12:22:07.583Z,5.10
2023-04-10T12:23:08.504Z,5.00
2023-04-10T12:24:08.345Z,5.50
2023-04-10T12:25:08.549Z,5.20
2023-04-10T12:26:07.562Z,4.70
2023-04-10T12:27:08.354Z,4.60
2023-04-10T12:28:07.501Z,4.70
2023-04-10T12:29:08.372Z,4.40
2023-04-10T12:30:08.287Z,4.80
2023-04-10T12:31:08.441Z,4.40
2023-04-10T12:32:07.539Z,4.60
2023-04-10T12:33:07.483Z,4.50
2023-04-10T12:34:09.936Z,4.40
2023-04-10T12:35:07.453Z,4.60
2023-04-10T12:36:07.404Z,4.40
2023-04-10T12:37:08.377Z,4.90
2023-04-10T12:38:07.370Z,5.00
2023-04-10T12:39:07.934Z,4.90
2023-04-10T12:40:08.360Z,4.70
2023-04-10T12:41:08.255Z,5.00
2023-04-10T12:42:07.334Z,4.80
2023-04-10T12:43:08.371Z,4.40
2023-04-10T12:44:08.223Z,4.70
2023-04-10T12:45:07.291Z,5.00
2023-04-10T12:46:07.707Z,5.00
2023-04-10T12:47:07.279Z,5.30
2023-04-10T12:48:07.374Z,5.30
2023-04-10T12:49:08.050Z,5.20
2023-04-10T12:50:07.230Z,5.20
2023-04-10T12:51:07.226Z,5.00
2023-04-10T12:52:07.908Z,5.50
2023-04-10T12:53:07.199Z,5.40
2023-04-10T12:54:07.153Z,5.10
2023-04-10T12:55:07.931Z,5.40
2023-04-10T12:56:08.152Z,5.20
2023-04-10T12:57:07.951Z,4.90
2023-04-10T12:58:07.220Z,5.30